createdAt,value
2019-02-25T00:00:48.141Z,76.32
2019-02-25T00:01:48.308Z,75.85
2019-02-25T00:02:48.480Z,75.85
2019-02-25T00:03:48.655Z,75.66
2019-02-25T00:04:48.821Z,75.85
2019-02-25T00:05:48.993Z,75.95
2019-02-25T00:06:49.158Z,76.23
2019-02-25T00:07:49.336Z,76.70
2019-02-25T00:08:49.502Z,76.42
2019-02-25T00:09:49.673Z,76.51
2019-02-25T00:10:49.840Z,77.08
2019-02-25T00:11:50.013Z,77.08
2019-02-25T00:12:50.181Z,76.99
2019-02-25T00:13:50.356Z,77.27
2019-02-25T00:14:50.526Z,77.18
2019-02-25T00:15:50.694Z,76.89
2019-02-25T00:16:50.872Z,76.89
2019-02-25T00:17:51.033Z,77.08
2019-02-25T00:18:51.210Z,76.99
2019-02-25T00:19:51.379Z,77.08
2019-02-25T00:20:51.556Z,76.32
2019-02-25T00:21:51.720Z,76.32
2019-02-25T00:22:51.884Z,76.51
2019-02-25T00:23:52.054Z,76.80
2019-02-25T00:24:52.227Z,76.95
2019-02-25T00:25:52.397Z,77.14
2019-02-25T00:26:52.572Z,77.89
2019-02-25T00:27:52.741Z,78.18
2019-02-25T00:28:52.915Z,79.13
2019-02-25T00:29:53.086Z,78.94
2019-02-25T00:30:53.256Z,78.65
2019-02-25T00:31:53.435Z,79.50
2019-02-25T00:32:53.600Z,79.13
2019-02-25T00:33:53.777Z,79.13
2019-02-25T00:34:53.946Z,79.41
2019-02-25T00:35:54.115Z,79.03
2019-02-25T00:36:54.283Z,78.79
2019-02-25T00:37:54.466Z,78.85
2019-02-25T00:38:54.630Z,78.56
2019-02-25T00:39:54.801Z,78.75
2019-02-25T00:40:54.962Z,78.94
2019-02-25T00:41:55.139Z,78.85
2019-02-25T00:42:55.311Z,78.85
2019-02-25T00:43:55.473Z,78.85
2019-02-25T00:44:55.650Z,78.94
2019-02-25T00:45:55.820Z,79.03
2019-02-25T00:46:55.994Z,78.46
2019-02-25T00:47:56.149Z,78.75
2019-02-25T00:48:56.319Z,79.50
2019-02-25T00:49:56.493Z,79.50
2019-02-25T00:50:56.665Z,79.32
2019-02-25T00:51:56.832Z,78.94
2019-02-25T00:52:57.003Z,79.13
2019-02-25T00:53:57.173Z,78.27
2019-02-25T00:54:57.345Z,78.46
2019-02-25T00:55:57.516Z,78.56
2019-02-25T00:56:57.684Z,78.46
2019-02-25T00:57:57.860Z,78.37
2019-02-25T00:58:58.028Z,77.80
2019-02-25T00:59:58.198Z,77.89
2019-02-25T01:00:58.374Z,77.61
2019-02-25T01:01:58.544Z,78.37
2019-02-25T01:02:58.709Z,78.37
2019-02-25T01:04:59.043Z,78.46
2019-02-25T01:05:59.220Z,77.89
2019-02-25T01:06:59.386Z,78.08
2019-02-25T01:07:59.559Z,78.46
2019-02-25T01:08:59.727Z,78.18
2019-02-25T01:09:59.896Z,78.94
2019-02-25T01:11:00.074Z,79.03
2019-02-25T01:12:00.236Z,78.94
2019-02-25T01:13:00.417Z,78.94
2019-02-25T01:14:00.571Z,79.50
2019-02-25T01:15:00.743Z,79.03
2019-02-25T01:16:00.914Z,79.69
2019-02-25T01:17:01.095Z,79.32
2019-02-25T01:18:01.249Z,79.13
2019-02-25T01:19:01.416Z,79.79
2019-02-25T01:20:01.608Z,80.26
2019-02-25T01:21:01.757Z,79.98
2019-02-25T01:22:01.927Z,80.30
2019-02-25T01:23:02.094Z,80.77
2019-02-25T01:24:02.265Z,80.58
2019-02-25T01:25:02.443Z,80.40
2019-02-25T01:26:02.601Z,80.58
2019-02-25T01:27:02.773Z,80.93
2019-02-25T01:28:02.947Z,80.83
2019-02-25T01:29:03.131Z,80.74
2019-02-25T01:30:03.287Z,80.83
2019-02-25T01:31:03.453Z,81.59
2019-02-25T01:32:03.632Z,80.74
2019-02-25T01:33:03.800Z,80.93
2019-02-25T01:34:03.973Z,81.21
2019-02-25T01:35:04.144Z,81.77
2019-02-25T01:36:04.305Z,82.63
2019-02-25T01:37:04.481Z,82.82
2019-02-25T01:38:04.653Z,83.29
2019-02-25T01:39:04.836Z,83.63
2019-02-25T01:40:04.998Z,83.76
2019-02-25T01:41:05.164Z,83.53
2019-02-25T01:42:05.334Z,84.39
2019-02-25T01:43:05.502Z,84.58
2019-02-25T01:44:05.675Z,84.81
2019-02-25T01:45:05.852Z,84.33
2019-02-25T01:46:06.024Z,83.67
2019-02-25T01:47:06.191Z,82.82
2019-02-25T01:48:06.362Z,81.77
2019-02-25T01:49:06.547Z,81.59
2019-02-25T01:50:06.701Z,83.25
2019-02-25T01:51:06.867Z,83.58
2019-02-25T01:52:07.043Z,84.33
2019-02-25T01:53:07.212Z,84.14
2019-02-25T01:54:07.382Z,84.71
2019-02-25T01:55:07.557Z,84.33
2019-02-25T01:56:07.717Z,84.61
2019-02-25T01:57:07.891Z,84.52
2019-02-25T01:58:08.061Z,84.81
2019-02-25T01:59:08.240Z,84.90
2019-02-25T02:00:08.399Z,84.81
2019-02-25T02:01:08.570Z,85.28
2019-02-25T02:03:08.907Z,85.19
2019-02-25T02:04:09.076Z,85.09
2019-02-25T02:05:09.250Z,85.19
2019-02-25T02:06:09.418Z,84.61
2019-02-25T02:07:09.587Z,85.09
2019-02-25T02:08:09.762Z,84.71
2019-02-25T02:09:09.933Z,84.81
2019-02-25T02:10:10.099Z,84.71
2019-02-25T02:11:10.268Z,85.09
2019-02-25T02:12:10.437Z,84.61
2019-02-25T02:13:14.255Z,85.09
2019-02-25T02:14:10.783Z,85.09
2019-02-25T02:15:10.955Z,85.19
2019-02-25T02:16:11.125Z,85.09
2019-02-25T02:17:11.292Z,85.09
2019-02-25T02:18:11.474Z,84.71
2019-02-25T02:19:11.635Z,84.61
2019-02-25T02:20:11.799Z,84.61
2019-02-25T02:21:11.970Z,84.81
2019-02-25T02:22:12.155Z,84.67
2019-02-25T02:23:12.311Z,85.24
2019-02-25T02:24:12.484Z,84.95
2019-02-25T02:25:12.647Z,84.95
2019-02-25T02:26:12.814Z,85.42
2019-02-25T02:27:12.996Z,85.61
2019-02-25T02:28:13.157Z,85.80
2019-02-25T02:29:13.327Z,86.37
2019-02-25T02:30:13.500Z,86.18
2019-02-25T02:31:13.687Z,86.18
2019-02-25T02:32:13.837Z,85.94
2019-02-25T02:33:14.013Z,85.47
2019-02-25T02:34:14.173Z,85.94
2019-02-25T02:35:14.339Z,85.94
2019-02-25T02:36:14.505Z,85.66
2019-02-25T02:37:14.680Z,85.57
2019-02-25T02:38:14.850Z,85.38
2019-02-25T02:39:15.029Z,85.38
2019-02-25T02:40:15.214Z,85.24
2019-02-25T02:41:15.366Z,85.94
2019-02-25T02:42:15.532Z,85.75
2019-02-25T02:43:15.704Z,85.90
2019-02-25T02:44:15.877Z,86.13
2019-02-25T02:45:16.051Z,85.61
2019-02-25T02:46:16.207Z,86.04
2019-02-25T02:47:16.377Z,85.94
2019-02-25T02:48:16.546Z,85.85
2019-02-25T02:49:16.716Z,85.85
2019-02-25T02:50:16.891Z,85.38
2019-02-25T02:51:17.057Z,85.28
2019-02-25T02:52:17.239Z,84.90
2019-02-25T02:53:17.395Z,85.19
2019-02-25T02:54:17.569Z,84.81
2019-02-25T02:55:17.756Z,85.09
2019-02-25T02:56:17.911Z,84.90
2019-02-25T02:57:18.078Z,84.52
2019-02-25T02:58:18.246Z,84.61
2019-02-25T02:59:18.418Z,84.81
2019-02-25T03:00:18.592Z,84.90
2019-02-25T03:01:18.769Z,85.00
2019-02-25T03:02:18.924Z,85.57
2019-02-25T03:03:19.098Z,85.75
2019-02-25T03:04:19.278Z,85.47
2019-02-25T03:05:19.449Z,84.90
2019-02-25T03:06:19.603Z,85.00
2019-02-25T03:07:19.775Z,84.71
2019-02-25T03:08:19.945Z,84.81
2019-02-25T03:09:20.118Z,84.81
2019-02-25T03:10:20.304Z,84.23
2019-02-25T03:11:20.457Z,84.05
2019-02-25T03:12:20.623Z,83.76
2019-02-25T03:13:20.798Z,83.76
2019-02-25T03:14:20.969Z,84.23
2019-02-25T03:15:21.136Z,84.61
2019-02-25T03:16:21.311Z,84.71
2019-02-25T03:17:21.477Z,84.81
2019-02-25T03:18:21.672Z,84.52
2019-02-25T03:19:21.828Z,84.23
2019-02-25T03:20:21.989Z,84.23
2019-02-25T03:21:22.171Z,84.23
2019-02-25T03:22:22.326Z,83.86
2019-02-25T03:23:22.499Z,84.71
2019-02-25T03:24:22.660Z,84.33
2019-02-25T03:25:22.830Z,84.52
2019-02-25T03:26:23.013Z,84.71
2019-02-25T03:27:23.166Z,84.61
2019-02-25T03:28:23.337Z,84.71
2019-02-25T03:29:23.507Z,84.81
2019-02-25T03:30:23.685Z,84.90
2019-02-25T03:31:23.846Z,85.00
2019-02-25T03:32:24.021Z,84.71
2019-02-25T03:33:24.229Z,85.09
2019-02-25T03:34:24.406Z,86.04
2019-02-25T03:35:24.531Z,85.66
2019-02-25T03:36:24.699Z,85.66
2019-02-25T03:37:24.873Z,85.00
2019-02-25T03:38:25.047Z,84.81
2019-02-25T03:39:25.213Z,84.95
2019-02-25T03:40:25.389Z,84.77
2019-02-25T03:41:25.545Z,84.90
2019-02-25T03:42:25.716Z,85.19
2019-02-25T03:43:25.888Z,85.00
2019-02-25T03:44:26.060Z,84.71
2019-02-25T03:45:26.233Z,84.71
2019-02-25T03:46:26.394Z,84.77
2019-02-25T03:47:26.571Z,85.42
2019-02-25T03:48:26.739Z,85.71
2019-02-25T03:49:26.908Z,86.09
2019-02-25T03:50:27.074Z,86.18
2019-02-25T03:51:27.248Z,86.37
2019-02-25T03:52:27.425Z,86.18
2019-02-25T03:53:27.602Z,86.18
2019-02-25T03:54:27.762Z,85.99
2019-02-25T03:55:27.938Z,86.28
2019-02-25T03:56:28.100Z,86.47
2019-02-25T03:57:28.328Z,85.80
2019-02-25T03:58:28.442Z,85.00
2019-02-25T03:59:28.614Z,84.77
2019-02-25T04:00:28.794Z,84.90
2019-02-25T04:01:28.954Z,84.71
2019-02-25T04:02:29.134Z,84.81
2019-02-25T04:03:29.294Z,84.42
2019-02-25T04:04:29.465Z,84.14
2019-02-25T04:05:29.641Z,84.20
2019-02-25T04:06:29.804Z,84.95
2019-02-25T04:07:29.980Z,84.58
2019-02-25T04:08:30.147Z,84.86
2019-02-25T04:09:30.334Z,85.05
2019-02-25T04:10:30.483Z,84.95
2019-02-25T04:11:30.653Z,84.95
2019-02-25T04:12:30.824Z,85.05
2019-02-25T04:13:30.999Z,84.86
2019-02-25T04:14:31.171Z,84.86
2019-02-25T04:15:31.343Z,85.14
2019-02-25T04:16:31.512Z,84.95
2019-02-25T04:17:31.684Z,84.95
2019-02-25T04:18:31.864Z,84.95
2019-02-25T04:19:32.026Z,84.86
2019-02-25T04:20:32.196Z,85.24
2019-02-25T04:21:32.379Z,84.86
2019-02-25T04:22:32.543Z,84.58
2019-02-25T04:23:32.704Z,84.95
2019-02-25T04:24:32.877Z,84.67
2019-02-25T04:25:33.053Z,85.05
2019-02-25T04:26:33.222Z,84.86
2019-02-25T04:27:33.396Z,85.05
2019-02-25T04:28:33.561Z,84.67
2019-02-25T04:29:33.732Z,84.67
2019-02-25T04:30:33.905Z,84.01
2019-02-25T04:31:34.077Z,83.53
2019-02-25T04:32:34.258Z,83.63
2019-02-25T04:33:34.417Z,84.29
2019-02-25T04:34:34.584Z,84.20
2019-02-25T04:35:34.757Z,84.20
2019-02-25T04:36:34.929Z,84.20
2019-02-25T04:37:35.102Z,84.48
2019-02-25T04:38:35.266Z,84.29
2019-02-25T04:39:35.437Z,84.58
2019-02-25T04:40:35.612Z,84.20
2019-02-25T04:41:35.783Z,84.95
2019-02-25T04:42:35.949Z,84.95
2019-02-25T04:43:36.128Z,84.67
2019-02-25T04:44:36.310Z,84.58
2019-02-25T04:45:36.457Z,83.44
2019-02-25T04:46:36.628Z,83.63
2019-02-25T04:47:36.816Z,83.53
2019-02-25T04:48:36.981Z,83.34
2019-02-25T04:49:37.148Z,84.20
2019-02-25T04:50:37.321Z,84.10
2019-02-25T04:51:37.490Z,84.67
2019-02-25T04:52:37.659Z,85.14
2019-02-25T04:53:37.838Z,85.05
2019-02-25T04:54:38.008Z,84.67
2019-02-25T04:55:38.175Z,85.14
2019-02-25T04:56:38.332Z,85.52
2019-02-25T04:57:38.513Z,85.61
2019-02-25T04:58:38.673Z,85.52
2019-02-25T04:59:38.839Z,85.42
2019-02-25T05:00:39.016Z,84.95
2019-02-25T05:01:39.180Z,85.71
2019-02-25T05:02:39.354Z,85.42
2019-02-25T05:03:39.524Z,85.90
2019-02-25T05:04:39.688Z,85.71
2019-02-25T05:05:39.856Z,85.14
2019-02-25T05:06:40.030Z,85.52
2019-02-25T05:07:40.198Z,85.61
2019-02-25T05:08:40.369Z,84.95
2019-02-25T05:09:40.551Z,85.05
2019-02-25T05:10:40.710Z,85.05
2019-02-25T05:11:40.882Z,84.67
2019-02-25T05:12:41.055Z,84.77
2019-02-25T05:13:41.223Z,84.95
2019-02-25T05:14:41.395Z,84.77
2019-02-25T05:15:41.574Z,84.77
2019-02-25T05:16:41.736Z,84.86
2019-02-25T05:17:41.907Z,84.58
2019-02-25T05:18:42.075Z,85.24
2019-02-25T05:19:42.262Z,85.33
2019-02-25T05:20:42.415Z,85.14
2019-02-25T05:21:43.260Z,84.77
2019-02-25T05:22:43.324Z,85.05
2019-02-25T05:23:42.873Z,84.95
2019-02-25T05:24:43.039Z,84.77
2019-02-25T05:25:43.216Z,84.58
2019-02-25T05:26:43.375Z,84.48
2019-02-25T05:27:43.558Z,84.77
2019-02-25T05:28:43.717Z,85.05
2019-02-25T05:29:43.891Z,84.95
2019-02-25T05:30:44.067Z,84.77
2019-02-25T05:31:44.229Z,84.67
2019-02-25T05:32:44.395Z,84.77
2019-02-25T05:33:44.563Z,84.95
2019-02-25T05:34:44.745Z,84.77
2019-02-25T05:35:44.901Z,85.14
2019-02-25T05:36:45.074Z,85.80
2019-02-25T05:37:45.240Z,85.80
2019-02-25T05:38:45.413Z,85.80
2019-02-25T05:39:45.581Z,85.71
2019-02-25T05:40:45.761Z,85.61
2019-02-25T05:41:45.925Z,86.09
2019-02-25T05:42:46.113Z,85.80
2019-02-25T05:43:46.262Z,85.42
2019-02-25T05:44:46.431Z,85.71
2019-02-25T05:45:46.618Z,85.33
2019-02-25T05:46:46.782Z,84.95
2019-02-25T05:47:46.952Z,84.86
2019-02-25T05:48:47.120Z,85.61
2019-02-25T05:49:47.418Z,85.61
2019-02-25T05:50:49.533Z,85.80
2019-02-25T05:51:47.631Z,85.71
2019-02-25T05:52:47.801Z,85.80
2019-02-25T05:53:47.979Z,85.42
2019-02-25T05:54:48.147Z,85.42
2019-02-25T05:55:48.313Z,85.42
2019-02-25T05:56:48.491Z,84.95
2019-02-25T05:57:48.654Z,85.05
2019-02-25T05:58:48.822Z,84.95
2019-02-25T05:59:48.997Z,84.67
2019-02-25T06:00:49.162Z,85.24
2019-02-25T06:01:49.336Z,84.86
2019-02-25T06:02:49.507Z,84.91
2019-02-25T06:03:49.686Z,85.47
2019-02-25T06:04:49.861Z,86.04
2019-02-25T06:05:50.040Z,86.14
2019-02-25T06:06:50.195Z,85.76
2019-02-25T06:07:50.375Z,86.33
2019-02-25T06:08:50.544Z,86.52
2019-02-25T06:09:50.712Z,86.04
2019-02-25T06:10:50.891Z,86.61
2019-02-25T06:11:51.054Z,86.42
2019-02-25T06:12:51.222Z,86.71
2019-02-25T06:13:51.403Z,87.08
2019-02-25T06:14:51.563Z,87.55
2019-02-25T06:15:51.734Z,88.03
2019-02-25T06:16:51.899Z,88.60
2019-02-25T06:17:52.069Z,88.60
2019-02-25T06:18:52.242Z,88.88
2019-02-25T06:19:52.426Z,88.79
2019-02-25T06:20:52.577Z,88.93
2019-02-25T06:21:52.748Z,88.60
2019-02-25T06:22:52.921Z,88.45
2019-02-25T06:23:53.093Z,88.41
2019-02-25T06:24:53.260Z,87.79
2019-02-25T06:25:53.436Z,88.03
2019-02-25T06:26:53.587Z,88.03
2019-02-25T06:27:53.756Z,87.98
2019-02-25T06:29:54.083Z,87.23
2019-02-25T06:30:54.257Z,86.94
2019-02-25T06:31:54.423Z,86.75
2019-02-25T06:32:54.593Z,87.04
2019-02-25T06:33:54.765Z,86.04
2019-02-25T06:34:54.931Z,86.61
2019-02-25T06:35:55.114Z,86.23
2019-02-25T06:36:55.274Z,86.33
2019-02-25T06:37:55.446Z,86.33
2019-02-25T06:38:55.614Z,86.61
2019-02-25T06:39:55.785Z,87.18
2019-02-25T06:40:55.966Z,86.52
2019-02-25T06:41:56.134Z,86.99
2019-02-25T06:42:56.300Z,86.42
2019-02-25T06:43:56.481Z,86.42
2019-02-25T06:44:56.641Z,86.71
2019-02-25T06:45:56.812Z,86.66
2019-02-25T06:46:56.981Z,86.23
2019-02-25T06:47:57.153Z,86.04
2019-02-25T06:48:57.323Z,86.14
2019-02-25T06:49:57.497Z,85.95
2019-02-25T06:50:57.664Z,85.99
2019-02-25T06:51:57.833Z,84.86
2019-02-25T06:52:58.005Z,84.29
2019-02-25T06:53:58.172Z,83.10
2019-02-25T06:54:58.344Z,81.87
2019-02-25T06:55:58.523Z,81.21
2019-02-25T06:56:58.681Z,80.93
2019-02-25T06:57:58.904Z,80.02
2019-02-25T06:58:59.027Z,78.59
2019-02-25T06:59:59.198Z,77.78
2019-02-25T07:00:59.375Z,76.93
2019-02-25T07:01:59.547Z,75.23
2019-02-25T07:02:59.716Z,74.37
2019-02-25T07:03:59.887Z,73.84
2019-02-25T07:05:00.136Z,72.99
2019-02-25T07:06:00.229Z,72.14
2019-02-25T07:07:00.404Z,70.90
2019-02-25T07:08:00.626Z,71.00
2019-02-25T07:09:00.743Z,70.94
2019-02-25T07:10:00.915Z,69.80
2019-02-25T07:11:01.091Z,70.37
2019-02-25T07:12:01.261Z,70.75
2019-02-25T07:13:01.430Z,70.65
2019-02-25T07:14:01.606Z,70.56
2019-02-25T07:15:01.777Z,70.65
2019-02-25T07:16:01.951Z,69.90
2019-02-25T07:17:02.133Z,70.03
2019-02-25T07:18:02.293Z,69.74
2019-02-25T07:19:02.459Z,69.23
2019-02-25T07:20:02.631Z,69.33
2019-02-25T07:21:02.806Z,70.03
2019-02-25T07:22:02.973Z,69.46
2019-02-25T07:23:03.485Z,68.79
2019-02-25T07:24:03.321Z,68.89
2019-02-25T07:25:03.511Z,67.85
2019-02-25T07:26:03.711Z,67.31
2019-02-25T07:27:03.846Z,67.37
2019-02-25T07:28:04.019Z,66.80
2019-02-25T07:29:04.194Z,66.89
2019-02-25T07:30:04.372Z,67.46
2019-02-25T07:31:04.547Z,68.48
2019-02-25T07:32:04.721Z,68.95
2019-02-25T07:33:04.908Z,70.24
2019-02-25T07:34:05.087Z,71.09
2019-02-25T07:35:05.278Z,72.42
2019-02-25T07:36:05.444Z,73.18
2019-02-25T07:37:05.613Z,73.90
2019-02-25T07:38:05.799Z,74.56
2019-02-25T07:39:06.014Z,74.75
2019-02-25T07:40:06.154Z,75.60
2019-02-25T07:41:06.328Z,75.57
2019-02-25T07:42:06.504Z,76.32
2019-02-25T07:43:06.679Z,76.70
2019-02-25T07:44:06.861Z,76.99
2019-02-25T07:45:07.025Z,77.37
2019-02-25T07:46:07.184Z,77.18
2019-02-25T07:47:07.352Z,77.18
2019-02-25T07:48:07.537Z,77.08
2019-02-25T07:49:07.734Z,77.94
2019-02-25T07:50:07.890Z,77.75
2019-02-25T07:51:08.056Z,77.59
2019-02-25T07:52:08.228Z,77.84
2019-02-25T07:53:08.394Z,77.88
2019-02-25T07:54:08.573Z,77.40
2019-02-25T07:55:08.745Z,76.65
2019-02-25T07:56:08.922Z,74.88
2019-02-25T07:57:09.104Z,73.79
2019-02-25T07:58:09.278Z,70.98
2019-02-25T07:59:09.452Z,68.70
2019-02-25T08:00:09.627Z,67.24
2019-02-25T08:01:09.800Z,67.46
2019-02-25T08:02:09.982Z,67.50
2019-02-25T08:03:10.143Z,66.55
2019-02-25T08:04:10.318Z,64.97
2019-02-25T08:05:10.490Z,63.73
2019-02-25T08:06:11.999Z,62.97
2019-02-25T08:07:10.837Z,61.87
2019-02-25T08:08:11.014Z,61.04
2019-02-25T08:09:11.430Z,59.52
2019-02-25T08:10:11.364Z,59.23
2019-02-25T08:11:11.544Z,58.95
2019-02-25T08:12:11.716Z,58.47
2019-02-25T08:13:11.883Z,58.40
2019-02-25T08:14:12.787Z,58.09
2019-02-25T08:15:12.260Z,58.37
2019-02-25T08:16:12.484Z,58.66
2019-02-25T08:17:12.596Z,59.05
2019-02-25T08:18:12.773Z,58.83
2019-02-25T08:19:12.944Z,59.39
2019-02-25T08:20:13.137Z,59.77
2019-02-25T08:21:13.308Z,59.71
2019-02-25T08:22:13.474Z,58.95
2019-02-25T08:23:13.672Z,58.22
2019-02-25T08:24:13.836Z,58.09
2019-02-25T08:25:14.014Z,57.36
2019-02-25T08:26:14.178Z,57.26
2019-02-25T08:27:14.368Z,56.79
2019-02-25T08:28:14.568Z,55.77
2019-02-25T08:29:14.715Z,55.42
2019-02-25T08:30:14.910Z,54.35
2019-02-25T08:31:15.080Z,53.61
2019-02-25T08:32:15.257Z,53.32
2019-02-25T08:33:15.445Z,52.37
2019-02-25T08:34:18.753Z,52.66
2019-02-25T08:35:15.795Z,52.66
2019-02-25T08:36:15.966Z,52.18
2019-02-25T08:37:16.491Z,51.64
2019-02-25T08:38:16.358Z,51.06
2019-02-25T08:39:17.095Z,50.52
2019-02-25T08:40:16.717Z,50.32
2019-02-25T08:41:16.892Z,49.44
2019-02-25T08:42:17.068Z,49.92
2019-02-25T08:43:17.248Z,50.49
2019-02-25T08:44:17.431Z,50.18
2019-02-25T08:45:17.600Z,51.23
2019-02-25T08:46:17.777Z,51.25
2019-02-25T08:47:17.958Z,51.30
2019-02-25T08:48:18.142Z,51.80
2019-02-25T08:49:18.313Z,52.56
2019-02-25T08:50:18.495Z,51.80
2019-02-25T08:51:18.675Z,51.99
2019-02-25T08:52:18.856Z,52.66
2019-02-25T08:53:19.038Z,52.82
2019-02-25T08:54:19.221Z,52.94
2019-02-25T08:55:19.404Z,52.49
2019-02-25T08:56:19.573Z,51.76
2019-02-25T08:57:19.753Z,50.71
2019-02-25T08:58:19.929Z,49.54
2019-02-25T08:59:20.114Z,49.85
2019-02-25T09:00:20.292Z,49.47
2019-02-25T09:01:20.467Z,50.30
2019-02-25T09:02:20.646Z,49.92
2019-02-25T09:03:20.837Z,49.92
2019-02-25T09:04:21.000Z,50.21
2019-02-25T09:05:21.178Z,50.13
2019-02-25T09:06:21.357Z,49.76
2019-02-25T09:07:21.533Z,49.18
2019-02-25T09:08:21.703Z,48.63
2019-02-25T09:09:21.901Z,47.97
2019-02-25T09:10:22.063Z,47.87
2019-02-25T09:11:22.238Z,47.87
2019-02-25T09:12:22.436Z,47.78
2019-02-25T09:13:23.893Z,47.42
2019-02-25T09:14:22.778Z,47.61
2019-02-25T09:15:22.959Z,47.49
2019-02-25T09:16:23.140Z,47.61
2019-02-25T09:17:23.331Z,47.23
2019-02-25T09:18:23.503Z,46.47
2019-02-25T09:19:23.673Z,46.37
2019-02-25T09:20:23.857Z,46.77
2019-02-25T09:21:31.626Z,46.58
2019-02-25T09:22:24.238Z,46.58
2019-02-25T09:23:24.415Z,45.82
2019-02-25T09:24:24.613Z,45.92
2019-02-25T09:25:24.775Z,45.46
2019-02-25T09:26:24.975Z,44.79
2019-02-25T09:27:25.137Z,44.79
2019-02-25T09:28:25.331Z,44.20
2019-02-25T09:29:25.500Z,45.27
2019-02-25T09:30:25.681Z,45.46
2019-02-25T09:31:25.879Z,44.98
2019-02-25T09:32:26.041Z,45.08
2019-02-25T09:33:26.221Z,44.70
2019-02-25T09:34:26.401Z,44.53
2019-02-25T09:35:26.593Z,43.57
2019-02-25T09:36:26.761Z,43.38
2019-02-25T09:37:26.943Z,43.19
2019-02-25T09:38:27.124Z,43.12
2019-02-25T09:39:27.314Z,43.00
2019-02-25T09:40:27.486Z,43.00
2019-02-25T09:41:30.192Z,42.52
2019-02-25T09:42:27.857Z,42.61
2019-02-25T09:43:28.030Z,42.61
2019-02-25T09:44:28.211Z,42.90
2019-02-25T09:45:28.392Z,42.61
2019-02-25T09:46:28.577Z,42.18
2019-02-25T09:47:28.770Z,41.13
2019-02-25T09:48:28.963Z,40.95
2019-02-25T09:49:29.115Z,40.19
2019-02-25T09:50:29.301Z,39.73
2019-02-25T09:51:29.510Z,39.45
2019-02-25T09:52:29.665Z,39.37
2019-02-25T09:53:29.853Z,38.41
2019-02-25T09:54:30.018Z,37.85
2019-02-25T09:55:30.198Z,37.36
2019-02-25T09:56:30.384Z,37.16
2019-02-25T09:57:30.563Z,36.88
2019-02-25T09:58:30.741Z,36.61
2019-02-25T09:59:30.927Z,36.42
2019-02-25T10:00:31.110Z,36.40
2019-02-25T10:01:31.291Z,37.24
2019-02-25T10:02:31.484Z,37.38
2019-02-25T10:03:31.654Z,36.61
2019-02-25T10:04:31.836Z,36.22
2019-02-25T10:05:32.027Z,35.86
2019-02-25T10:06:32.210Z,35.27
2019-02-25T10:07:32.384Z,36.00
2019-02-25T10:08:32.567Z,36.40
2019-02-25T10:09:32.749Z,36.32
2019-02-25T10:10:32.935Z,35.67
2019-02-25T10:11:33.124Z,35.00
2019-02-25T10:12:33.301Z,34.52
2019-02-25T10:13:33.490Z,34.44
2019-02-25T10:14:33.669Z,33.58
2019-02-25T10:15:33.849Z,33.58
2019-02-25T10:16:34.028Z,33.29
2019-02-25T10:17:34.222Z,33.19
2019-02-25T10:18:34.397Z,33.37
2019-02-25T10:19:34.897Z,33.75
2019-02-25T10:20:34.760Z,34.15
2019-02-25T10:21:34.941Z,33.11
2019-02-25T10:22:35.125Z,32.93
2019-02-25T10:23:35.315Z,32.07
2019-02-25T10:24:35.501Z,31.49
2019-02-25T10:25:35.688Z,31.02
2019-02-25T10:26:35.880Z,31.02
2019-02-25T10:27:36.057Z,31.21
2019-02-25T10:28:36.233Z,30.15
2019-02-25T10:29:36.414Z,29.82
2019-02-25T10:30:36.605Z,31.26
2019-02-25T10:31:38.108Z,31.98
2019-02-25T10:32:36.973Z,33.70
2019-02-25T10:33:37.153Z,33.45
2019-02-25T10:34:37.341Z,33.16
2019-02-25T10:35:37.518Z,32.78
2019-02-25T10:36:37.703Z,32.62
2019-02-25T10:37:38.766Z,31.66
2019-02-25T10:38:38.068Z,31.10
2019-02-25T10:39:38.251Z,31.20
2019-02-25T10:40:38.452Z,30.33
2019-02-25T10:41:38.629Z,30.44
2019-02-25T10:42:38.818Z,30.26
2019-02-25T10:43:39.009Z,30.25
2019-02-25T10:44:40.256Z,30.92
2019-02-25T10:45:41.065Z,31.11
2019-02-25T10:46:40.845Z,30.63
2019-02-25T10:47:39.726Z,29.96
2019-02-25T10:48:39.916Z,29.48
2019-02-25T10:49:40.087Z,29.67
2019-02-25T10:50:40.914Z,29.67
2019-02-25T10:51:41.267Z,29.86
2019-02-25T10:52:41.322Z,29.69
2019-02-25T10:53:40.827Z,29.85
2019-02-25T10:54:41.010Z,29.88
2019-02-25T10:55:44.530Z,29.49
2019-02-25T10:56:41.379Z,28.93
2019-02-25T10:57:41.556Z,28.55
2019-02-25T10:58:41.739Z,28.36
2019-02-25T10:59:41.928Z,27.20
2019-02-25T11:00:43.684Z,26.82
2019-02-25T11:01:43.432Z,26.90
2019-02-25T11:02:44.391Z,27.11
2019-02-25T11:03:43.525Z,27.22
2019-02-25T11:04:42.843Z,27.60
2019-02-25T11:05:43.034Z,27.30
2019-02-25T11:06:43.215Z,27.39
2019-02-25T11:07:43.400Z,27.59
2019-02-25T11:08:45.618Z,27.22
2019-02-25T11:09:45.688Z,26.27
2019-02-25T11:10:44.561Z,26.07
2019-02-25T11:11:44.210Z,25.59
2019-02-25T11:12:44.396Z,25.69
2019-02-25T11:13:44.581Z,24.43
2019-02-25T11:14:44.763Z,24.44
2019-02-25T11:15:47.824Z,24.54
2019-02-25T11:16:46.095Z,24.52
2019-02-25T11:17:45.858Z,24.99
2019-02-25T11:18:45.504Z,25.38
2019-02-25T11:19:45.685Z,25.18
2019-02-25T11:20:45.868Z,25.02
2019-02-25T11:21:46.051Z,24.45
2019-02-25T11:22:48.425Z,23.96
2019-02-25T11:23:47.197Z,24.62
2019-02-25T11:24:49.005Z,24.92
2019-02-25T11:25:46.800Z,24.55
2019-02-25T11:26:46.995Z,23.97
2019-02-25T11:27:47.175Z,23.58
2019-02-25T11:28:47.361Z,23.97
2019-02-25T11:29:48.454Z,24.35
2019-02-25T11:30:49.805Z,23.88
2019-02-25T11:31:49.516Z,23.40
2019-02-25T11:32:49.126Z,23.86
2019-02-25T11:33:48.298Z,24.52
2019-02-25T11:34:48.504Z,24.84
2019-02-25T11:35:48.670Z,24.65
2019-02-25T11:36:50.964Z,24.54
2019-02-25T11:37:50.090Z,24.81
2019-02-25T11:38:49.492Z,24.63
2019-02-25T11:39:49.417Z,25.02
2019-02-25T11:40:49.663Z,24.82
2019-02-25T11:41:49.841Z,25.21
2019-02-25T11:42:50.028Z,25.39
2019-02-25T11:43:52.574Z,25.60
2019-02-25T11:44:51.955Z,24.92
2019-02-25T11:45:51.185Z,24.95
2019-02-25T11:46:50.826Z,24.57
2019-02-25T11:47:51.020Z,23.63
2019-02-25T11:48:51.192Z,23.07
2019-02-25T11:49:51.472Z,22.06
2019-02-25T11:50:51.557Z,23.60
2019-02-25T11:51:51.742Z,23.13
2019-02-25T11:52:52.014Z,23.04
2019-02-25T11:53:52.190Z,22.39
2019-02-25T11:54:52.557Z,21.92
2019-02-25T11:55:52.609Z,21.53
2019-02-25T11:56:52.813Z,21.98
2019-02-25T11:57:52.985Z,21.94
2019-02-25T11:58:53.231Z,21.75
2019-02-25T11:59:54.026Z,21.97
2019-02-25T12:00:53.411Z,20.14
2019-02-25T12:01:53.598Z,19.76
2019-02-25T12:02:53.786Z,19.67
2019-02-25T12:03:54.005Z,19.68
2019-02-25T12:04:54.199Z,19.10
2019-02-25T12:05:54.382Z,19.84
2019-02-25T12:06:54.642Z,20.05
2019-02-25T12:07:54.734Z,20.16
2019-02-25T12:08:54.928Z,19.87
2019-02-25T12:09:55.118Z,19.78
2019-02-25T12:10:55.324Z,20.07
2019-02-25T12:11:55.501Z,20.75
2019-02-25T12:12:55.681Z,21.12
2019-02-25T12:13:55.872Z,21.22
2019-02-25T12:14:56.056Z,21.33
2019-02-25T12:15:56.247Z,21.31
2019-02-25T12:16:56.436Z,22.63
2019-02-25T12:17:56.620Z,23.19
2019-02-25T12:18:56.806Z,24.63
2019-02-25T12:19:56.997Z,24.73
2019-02-25T12:20:57.173Z,24.82
2019-02-25T12:21:57.368Z,24.99
2019-02-25T12:22:57.568Z,25.76
2019-02-25T12:23:57.763Z,26.24
2019-02-25T12:24:57.951Z,26.42
2019-02-25T12:25:58.170Z,27.56
2019-02-25T12:26:58.362Z,27.56
2019-02-25T12:27:58.546Z,28.15
2019-02-25T12:28:58.724Z,28.34
2019-02-25T12:29:58.911Z,28.16
2019-02-25T12:30:59.091Z,27.76
2019-02-25T12:31:59.279Z,28.25
2019-02-25T12:32:59.455Z,28.72
2019-02-25T12:33:59.638Z,28.91
2019-02-25T12:34:59.914Z,28.92
2019-02-25T12:35:59.967Z,29.77
2019-02-25T12:37:00.190Z,29.79
2019-02-25T12:38:00.362Z,30.07
2019-02-25T12:39:00.534Z,29.96
2019-02-25T12:40:00.720Z,30.26
2019-02-25T12:41:00.887Z,30.46
2019-02-25T12:42:01.089Z,30.55
2019-02-25T12:43:01.262Z,31.13
2019-02-25T12:44:01.453Z,31.23
2019-02-25T12:45:01.643Z,31.70
2019-02-25T12:46:01.808Z,31.51
2019-02-25T12:47:01.990Z,31.70
2019-02-25T12:48:02.169Z,31.69
2019-02-25T12:49:02.350Z,32.36
2019-02-25T12:50:02.536Z,32.84
2019-02-25T12:51:02.746Z,32.84
2019-02-25T12:52:02.885Z,32.65
2019-02-25T12:53:03.079Z,32.84
2019-02-25T12:54:03.273Z,32.93
2019-02-25T12:55:03.468Z,31.90
2019-02-25T12:56:03.652Z,31.51
2019-02-25T12:57:03.841Z,31.90
2019-02-25T12:58:04.030Z,31.70